sensor_id;sensor_type;location;lat;lon;timestamp;pressure;altitude;pressure_sealevel;temperature;humidity
44988;BME280;35735;52.226;21.254;2023-04-04T00:04:09;101177.47;;;0.97;90.42
44988;BME280;35735;52.226;21.254;2023-04-04T00:09:12;101184.06;;;0.87;90.31
44988;BME280;35735;52.226;21.254;2023-04-04T00:14:13;101174.28;;;0.86;90.58
44988;BME280;35735;52.226;21.254;2023-04-04T00:19:14;101168.72;;;0.81;91.08
44988;BME280;35735;52.226;21.254;2023-04-04T00:24:14;101162.44;;;0.79;91.21
44988;BME280;35735;52.226;21.254;2023-04-04T00:29:15;101160.50;;;0.77;91.30
44988;BME280;35735;52.226;21.254;2023-04-04T00:34:15;101165.75;;;0.75;91.48
44988;BME280;35735;52.226;21.254;2023-04-04T00:39:16;101157.69;;;0.73;91.72
44988;BME280;35735;52.226;21.254;2023-04-04T00:44:16;101159.63;;;0.60;91.70
44988;BME280;35735;52.226;21.254;2023-04-04T00:49:17;101159.19;;;0.50;91.93
44988;BME280;35735;52.226;21.254;2023-04-04T00:54:18;101148.06;;;0.41;92.29
44988;BME280;35735;52.226;21.254;2023-04-04T00:59:18;101150.53;;;0.38;92.58
44988;BME280;35735;52.226;21.254;2023-04-04T01:04:19;101147.41;;;0.29;93.08
44988;BME280;35735;52.226;21.254;2023-04-04T01:09:20;101136.62;;;0.26;93.20
44988;BME280;35735;52.226;21.254;2023-04-04T01:14:21;101122.75;;;0.15;93.52
44988;BME280;35735;52.226;21.254;2023-04-04T01:19:31;101121.41;;;0.05;93.88
44988;BME280;35735;52.226;21.254;2023-04-04T01:24:34;101124.44;;;-0.04;94.19
44988;BME280;35735;52.226;21.254;2023-04-04T01:29:35;101131.31;;;-0.07;94.60
44988;BME280;35735;52.226;21.254;2023-04-04T01:34:48;101119.03;;;-0.05;94.84
44988;BME280;35735;52.226;21.254;2023-04-04T01:40:03;101111.03;;;-0.07;94.87
44988;BME280;35735;52.226;21.254;2023-04-04T01:45:09;101118.41;;;-0.17;94.91
44988;BME280;35735;52.226;21.254;2023-04-04T01:50:10;101116.06;;;-0.28;95.23
44988;BME280;35735;52.226;21.254;2023-04-04T01:55:11;101116.56;;;-0.19;95.54
44988;BME280;35735;52.226;21.254;2023-04-04T02:00:12;101124.22;;;-0.25;95.48
44988;BME280;35735;52.226;21.254;2023-04-04T02:05:12;101121.63;;;-0.23;95.70
44988;BME280;35735;52.226;21.254;2023-04-04T02:10:13;101109.59;;;-0.33;95.77
44988;BME280;35735;52.226;21.254;2023-04-04T02:15:14;101116.31;;;-0.40;96.12
44988;BME280;35735;52.226;21.254;2023-04-04T02:20:14;101120.38;;;-0.46;96.32
44988;BME280;35735;52.226;21.254;2023-04-04T02:25:15;101124.91;;;-0.44;96.86
44988;BME280;35735;52.226;21.254;2023-04-04T02:30:16;101119.88;;;-0.39;96.74
44988;BME280;35735;52.226;21.254;2023-04-04T02:35:16;101119.69;;;-0.42;97.09
44988;BME280;35735;52.226;21.254;2023-04-04T02:40:17;101118.63;;;-0.46;97.11
44988;BME280;35735;52.226;21.254;2023-04-04T02:45:17;101120.28;;;-0.48;97.09
44988;BME280;35735;52.226;21.254;2023-04-04T02:50:18;101120.00;;;-0.52;97.27
44988;BME280;35735;52.226;21.254;2023-04-04T02:55:18;101118.03;;;-0.57;97.53
44988;BME280;35735;52.226;21.254;2023-04-04T03:00:19;101122.81;;;-0.66;97.77
44988;BME280;35735;52.226;21.254;2023-04-04T03:05:20;101120.47;;;-0.76;97.96
44988;BME280;35735;52.226;21.254;2023-04-04T03:10:22;101126.25;;;-0.83;98.24
44988;BME280;35735;52.226;21.254;2023-04-04T03:15:25;101124.91;;;-0.91;98.52
44988;BME280;35735;52.226;21.254;2023-04-04T03:20:26;101122.78;;;-0.97;98.71
44988;BME280;35735;52.226;21.254;2023-04-04T03:25:26;101114.75;;;-0.99;99.14
44988;BME280;35735;52.226;21.254;2023-04-04T03:30:27;101113.75;;;-1.01;99.44
44988;BME280;35735;52.226;21.254;2023-04-04T03:35:27;101115.59;;;-1.00;99.75
44988;BME280;35735;52.226;21.254;2023-04-04T03:40:28;101120.03;;;-0.99;99.71
44988;BME280;35735;52.226;21.254;2023-04-04T03:45:28;101115.31;;;-1.04;99.78
44988;BME280;35735;52.226;21.254;2023-04-04T03:50:29;101111.41;;;-1.11;99.96
44988;BME280;35735;52.226;21.254;2023-04-04T03:55:30;101115.34;;;-1.19;100.00
44988;BME280;35735;52.226;21.254;2023-04-04T04:00:30;101124.94;;;-1.21;100.00
44988;BME280;35735;52.226;21.254;2023-04-04T04:05:31;101112.31;;;-1.25;100.00
44988;BME280;35735;52.226;21.254;2023-04-04T04:10:32;101110.50;;;-1.26;100.00
44988;BME280;35735;52.226;21.254;2023-04-04T04:15:33;101114.16;;;-1.24;100.00
44988;BME280;35735;52.226;21.254;2023-04-04T04:20:33;101111.41;;;-1.26;100.00
44988;BME280;35735;52.226;21.254;2023-04-04T04:25:34;101104.13;;;-1.30;100.00
44988;BME280;35735;52.226;21.254;2023-04-04T04:30:34;101113.44;;;-1.37;100.00
44988;BME280;35735;52.226;21.254;2023-04-04T04:35:35;101120.38;;;-1.39;100.00
44988;BME280;35735;52.226;21.254;2023-04-04T04:40:36;101103.19;;;-1.31;100.00
44988;BME280;35735;52.226;21.254;2023-04-04T04:45:36;101099.72;;;-1.15;100.00
44988;BME280;35735;52.226;21.254;2023-04-04T04:50:37;101111.00;;;-1.02;100.00
44988;BME280;35735;52.226;21.254;2023-04-04T04:55:38;101106.62;;;-0.87;100.00
44988;BME280;35735;52.226;21.254;2023-04-04T05:00:38;101104.91;;;-0.70;100.00
44988;BME280;35735;52.226;21.254;2023-04-04T05:05:41;101104.28;;;-0.49;100.00
44988;BME280;35735;52.226;21.254;2023-04-04T05:10:42;101102.00;;;-0.27;100.00
44988;BME280;35735;52.226;21.254;2023-04-04T05:15:44;101097.56;;;0.07;100.00
44988;BME280;35735;52.226;21.254;2023-04-04T05:20:53;101092.81;;;0.34;100.00
44988;BME280;35735;52.226;21.254;2023-04-04T05:25:54;101095.91;;;0.43;100.00
44988;BME280;35735;52.226;21.254;2023-04-04T05:30:54;101088.37;;;0.69;100.00
44988;BME280;35735;52.226;21.254;2023-04-04T05:35:55;101095.91;;;0.96;100.00
44988;BME280;35735;52.226;21.254;2023-04-04T05:40:55;101094.81;;;1.10;99.27
44988;BME280;35735;52.226;21.254;2023-04-04T05:45:56;101092.88;;;1.24;99.00
44988;BME280;35735;52.226;21.254;2023-04-04T05:50:56;101099.62;;;1.55;98.41
44988;BME280;35735;52.226;21.254;2023-04-04T05:55:57;101096.59;;;1.84;97.90
44988;BME280;35735;52.226;21.254;2023-04-04T06:00:57;101096.09;;;2.13;97.30
44988;BME280;35735;52.226;21.254;2023-04-04T06:05:58;101103.00;;;2.29;96.38
44988;BME280;35735;52.226;21.254;2023-04-04T06:10:58;101094.06;;;2.48;95.73
44988;BME280;35735;52.226;21.254;2023-04-04T06:15:59;101095.97;;;2.71;94.96
44988;BME280;35735;52.226;21.254;2023-04-04T06:21:00;101098.56;;;2.91;94.28
44988;BME280;35735;52.226;21.254;2023-04-04T06:26:01;101084.16;;;3.08;93.95
44988;BME280;35735;52.226;21.254;2023-04-04T06:31:04;101088.53;;;3.29;93.38
44988;BME280;35735;52.226;21.254;2023-04-04T06:36:05;101081.94;;;3.64;93.03
44988;BME280;35735;52.226;21.254;2023-04-04T06:41:05;101075.78;;;3.89;91.96
44988;BME280;35735;52.226;21.254;2023-04-04T06:46:06;101081.78;;;4.08;91.49
44988;BME280;35735;52.226;21.254;2023-04-04T06:51:07;101070.00;;;4.27;90.78
44988;BME280;35735;52.226;21.254;2023-04-04T06:56:08;101072.84;;;4.57;90.36
44988;BME280;35735;52.226;21.254;2023-04-04T07:01:08;101069.72;;;4.71;88.75
44988;BME280;35735;52.226;21.254;2023-04-04T07:06:09;101063.75;;;4.78;87.46
44988;BME280;35735;52.226;21.254;2023-04-04T07:11:10;101067.59;;;4.86;87.05
44988;BME280;35735;52.226;21.254;2023-04-04T07:16:11;101059.34;;;5.07;86.41
44988;BME280;35735;52.226;21.254;2023-04-04T07:21:11;101058.09;;;5.23;85.31
44988;BME280;35735;52.226;21.254;2023-04-04T07:26:12;101060.00;;;5.27;84.85
44988;BME280;35735;52.226;21.254;2023-04-04T07:31:12;101056.03;;;5.43;84.87
44988;BME280;35735;52.226;21.254;2023-04-04T07:36:13;101048.97;;;5.75;84.27
44988;BME280;35735;52.226;21.254;2023-04-04T07:41:14;101056.25;;;6.10;83.28
44988;BME280;35735;52.226;21.254;2023-04-04T07:46:14;101046.69;;;6.20;82.39
44988;BME280;35735;52.226;21.254;2023-04-04T07:51:15;101044.53;;;6.40;81.21
44988;BME280;35735;52.226;21.254;2023-04-04T07:56:15;101047.53;;;6.51;80.38
44988;BME280;35735;52.226;21.254;2023-04-04T08:01:16;101030.97;;;6.67;79.35
44988;BME280;35735;52.226;21.254;2023-04-04T08:06:17;101036.63;;;6.79;78.17
44988;BME280;35735;52.226;21.254;2023-04-04T08:11:17;101033.25;;;6.52;76.81
44988;BME280;35735;52.226;21.254;2023-04-04T08:16:18;101033.50;;;6.27;75.87
44988;BME280;35735;52.226;21.254;2023-04-04T08:21:18;101019.59;;;6.42;77.16
44988;BME280;35735;52.226;21.254;2023-04-04T08:26:19;101024.91;;;6.76;76.32
44988;BME280;35735;52.226;21.254;2023-04-04T08:31:19;101019.00;;;6.89;74.99
44988;BME280;35735;52.226;21.254;2023-04-04T08:36:20;101019.97;;;6.93;73.34
44988;BME280;35735;52.226;21.254;2023-04-04T08:41:21;101017.31;;;6.58;72.11
44988;BME280;35735;52.226;21.254;2023-04-04T08:46:21;101010.22;;;6.26;72.16
44988;BME280;35735;52.226;21.254;2023-04-04T08:51:23;101015.34;;;6.17;73.21
44988;BME280;35735;52.226;21.254;2023-04-04T08:56:25;101010.00;;;6.17;72.62
44988;BME280;35735;52.226;21.254;2023-04-04T09:01:27;101010.56;;;6.05;72.26
44988;BME280;35735;52.226;21.254;2023-04-04T09:06:28;101013.63;;;5.89;70.78
44988;BME280;35735;52.226;21.254;2023-04-04T09:11:32;101002.50;;;5.73;71.22
44988;BME280;35735;52.226;21.254;2023-04-04T09:16:33;100997.19;;;5.75;72.23
44988;BME280;35735;52.226;21.254;2023-04-04T09:21:33;101002.91;;;5.57;71.64
44988;BME280;35735;52.226;21.254;2023-04-04T09:26:51;100997.19;;;5.46;71.50
44988;BME280;35735;52.226;21.254;2023-04-04T09:31:52;101003.19;;;5.37;70.39
44988;BME280;35735;52.226;21.254;2023-04-04T09:36:53;101014.38;;;5.24;69.33
44988;BME280;35735;52.226;21.254;2023-04-04T09:41:53;101000.31;;;5.30;70.37
44988;BME280;35735;52.226;21.254;2023-04-04T09:47:22;101002.78;;;5.24;69.00
44988;BME280;35735;52.226;21.254;2023-04-04T09:52:26;101008.56;;;5.09;68.78
44988;BME280;35735;52.226;21.254;2023-04-04T09:57:31;101008.75;;;4.86;68.61
44988;BME280;35735;52.226;21.254;2023-04-04T10:02:32;101009.50;;;4.82;69.16
44988;BME280;35735;52.226;21.254;2023-04-04T10:07:37;101013.28;;;4.89;69.52
44988;BME280;35735;52.226;21.254;2023-04-04T10:12:38;101010.34;;;4.81;69.10
44988;BME280;35735;52.226;21.254;2023-04-04T10:17:40;101006.44;;;4.70;68.54
44988;BME280;35735;52.226;21.254;2023-04-04T10:22:41;101020.34;;;4.59;68.69
44988;BME280;35735;52.226;21.254;2023-04-04T10:27:43;101006.87;;;4.56;69.39
44988;BME280;35735;52.226;21.254;2023-04-04T10:32:56;101004.38;;;4.62;70.95
44988;BME280;35735;52.226;21.254;2023-04-04T10:38:02;101000.41;;;4.77;70.78
44988;BME280;35735;52.226;21.254;2023-04-04T10:43:04;101002.78;;;4.68;71.41
44988;BME280;35735;52.226;21.254;2023-04-04T10:48:06;100994.00;;;4.44;71.98
44988;BME280;35735;52.226;21.254;2023-04-04T10:53:07;100998.41;;;4.44;72.80
44988;BME280;35735;52.226;21.254;2023-04-04T10:58:08;101004.78;;;4.48;73.07
44988;BME280;35735;52.226;21.254;2023-04-04T11:03:09;100996.50;;;4.40;73.61
44988;BME280;35735;52.226;21.254;2023-04-04T11:08:10;100983.41;;;4.75;74.41
44988;BME280;35735;52.226;21.254;2023-04-04T11:18:18;100981.66;;;5.04;71.65
44988;BME280;35735;52.226;21.254;2023-04-04T11:23:20;100982.28;;;4.95;71.57
44988;BME280;35735;52.226;21.254;2023-04-04T11:33:26;100981.59;;;4.47;73.54
44988;BME280;35735;52.226;21.254;2023-04-04T11:38:28;100991.06;;;4.37;74.56
44988;BME280;35735;52.226;21.254;2023-04-04T11:43:32;100982.13;;;4.36;75.56
44988;BME280;35735;52.226;21.254;2023-04-04T11:48:32;100978.09;;;4.49;76.18
44988;BME280;35735;52.226;21.254;2023-04-04T11:53:33;100972.75;;;4.49;75.30
44988;BME280;35735;52.226;21.254;2023-04-04T11:58:33;100977.19;;;4.49;75.76
44988;BME280;35735;52.226;21.254;2023-04-04T12:03:34;100975.34;;;4.46;74.26
44988;BME280;35735;52.226;21.254;2023-04-04T12:08:35;100971.78;;;4.47;73.72
44988;BME280;35735;52.226;21.254;2023-04-04T12:13:42;100967.78;;;4.33;74.53
44988;BME280;35735;52.226;21.254;2023-04-04T12:18:43;100961.75;;;4.14;76.17
44988;BME280;35735;52.226;21.254;2023-04-04T12:23:47;100971.81;;;3.96;78.43
44988;BME280;35735;52.226;21.254;2023-04-04T12:28:47;100970.62;;;3.87;79.80
44988;BME280;35735;52.226;21.254;2023-04-04T12:33:48;100969.00;;;3.91;80.91
44988;BME280;35735;52.226;21.254;2023-04-04T12:38:59;100968.34;;;3.98;80.89
44988;BME280;35735;52.226;21.254;2023-04-04T12:44:02;100960.28;;;3.97;79.43
44988;BME280;35735;52.226;21.254;2023-04-04T12:49:10;100958.63;;;4.00;79.46
44988;BME280;35735;52.226;21.254;2023-04-04T12:54:25;100956.72;;;3.96;78.51
44988;BME280;35735;52.226;21.254;2023-04-04T12:59:31;100951.44;;;3.98;78.49
44988;BME280;35735;52.226;21.254;2023-04-04T13:04:35;100960.09;;;3.92;78.31
44988;BME280;35735;52.226;21.254;2023-04-04T13:09:50;100955.47;;;3.86;79.16
44988;BME280;35735;52.226;21.254;2023-04-04T13:14:58;100957.75;;;3.76;81.26
44988;BME280;35735;52.226;21.254;2023-04-04T13:19:59;100953.44;;;3.79;82.85
44988;BME280;35735;52.226;21.254;2023-04-04T13:25:00;100955.34;;;3.83;82.77
44988;BME280;35735;52.226;21.254;2023-04-04T13:30:02;100960.34;;;3.74;82.98
44988;BME280;35735;52.226;21.254;2023-04-04T13:35:03;100953.94;;;3.69;83.38
44988;BME280;35735;52.226;21.254;2023-04-04T13:40:04;100952.72;;;3.59;82.91
44988;BME280;35735;52.226;21.254;2023-04-04T13:45:06;100943.06;;;3.63;83.85
44988;BME280;35735;52.226;21.254;2023-04-04T13:50:07;100946.03;;;3.72;83.19
44988;BME280;35735;52.226;21.254;2023-04-04T13:55:09;100951.31;;;3.70;82.24
44988;BME280;35735;52.226;21.254;2023-04-04T14:00:10;100946.91;;;3.71;81.49
44988;BME280;35735;52.226;21.254;2023-04-04T14:05:11;100947.62;;;3.67;81.07
44988;BME280;35735;52.226;21.254;2023-04-04T14:10:11;100949.47;;;3.68;80.53
44988;BME280;35735;52.226;21.254;2023-04-04T14:15:12;100951.19;;;3.66;80.81
44988;BME280;35735;52.226;21.254;2023-04-04T14:20:14;100951.56;;;3.77;80.36
44988;BME280;35735;52.226;21.254;2023-04-04T14:25:14;100941.87;;;3.80;80.14
44988;BME280;35735;52.226;21.254;2023-04-04T14:30:15;100932.16;;;3.82;79.63
44988;BME280;35735;52.226;21.254;2023-04-04T14:35:15;100938.63;;;3.89;79.00
44988;BME280;35735;52.226;21.254;2023-04-04T14:40:16;100920.88;;;3.89;78.80
44988;BME280;35735;52.226;21.254;2023-04-04T14:45:17;100914.75;;;3.94;78.49
44988;BME280;35735;52.226;21.254;2023-04-04T14:50:17;100917.53;;;3.97;78.70
44988;BME280;35735;52.226;21.254;2023-04-04T14:55:19;100922.94;;;3.98;78.37
44988;BME280;35735;52.226;21.254;2023-04-04T15:00:19;100920.22;;;3.97;78.66
44988;BME280;35735;52.226;21.254;2023-04-04T15:05:20;100927.28;;;3.95;78.55
44988;BME280;35735;52.226;21.254;2023-04-04T15:10:20;100934.84;;;3.82;77.91
44988;BME280;35735;52.226;21.254;2023-04-04T15:15:21;100930.25;;;3.78;78.68
44988;BME280;35735;52.226;21.254;2023-04-04T15:20:22;100926.69;;;3.78;78.29
44988;BME280;35735;52.226;21.254;2023-04-04T15:25:23;100919.47;;;3.75;78.95
44988;BME280;35735;52.226;21.254;2023-04-04T15:30:25;100912.28;;;3.74;78.79
44988;BME280;35735;52.226;21.254;2023-04-04T15:35:25;100915.06;;;3.77;78.51
44988;BME280;35735;52.226;21.254;2023-04-04T15:40:26;100907.87;;;3.75;78.74
44988;BME280;35735;52.226;21.254;2023-04-04T15:45:27;100906.28;;;3.80;79.23
44988;BME280;35735;52.226;21.254;2023-04-04T15:50:27;100912.28;;;3.74;78.26
44988;BME280;35735;52.226;21.254;2023-04-04T15:55:28;100905.03;;;3.70;78.10
44988;BME280;35735;52.226;21.254;2023-04-04T16:00:28;100913.88;;;3.69;78.05
44988;BME280;35735;52.226;21.254;2023-04-04T16:05:29;100910.38;;;3.70;78.93
44988;BME280;35735;52.226;21.254;2023-04-04T16:10:29;100908.66;;;3.72;77.78
44988;BME280;35735;52.226;21.254;2023-04-04T16:15:30;100909.53;;;3.71;78.51
44988;BME280;35735;52.226;21.254;2023-04-04T16:20:31;100901.53;;;3.71;77.86
44988;BME280;35735;52.226;21.254;2023-04-04T16:25:31;100899.81;;;3.73;78.37
44988;BME280;35735;52.226;21.254;2023-04-04T16:30:32;100901.59;;;3.74;78.53
44988;BME280;35735;52.226;21.254;2023-04-04T16:35:33;100905.56;;;3.60;77.84
44988;BME280;35735;52.226;21.254;2023-04-04T16:40:34;100903.41;;;3.49;78.60
44988;BME280;35735;52.226;21.254;2023-04-04T16:45:35;100902.34;;;3.44;78.79
44988;BME280;35735;52.226;21.254;2023-04-04T16:50:36;100905.50;;;3.34;77.77
44988;BME280;35735;52.226;21.254;2023-04-04T16:55:36;100923.91;;;3.26;78.00
44988;BME280;35735;52.226;21.254;2023-04-04T17:00:37;100914.78;;;3.20;79.02
44988;BME280;35735;52.226;21.254;2023-04-04T17:05:38;100922.34;;;3.09;80.30
44988;BME280;35735;52.226;21.254;2023-04-04T17:10:38;100925.81;;;3.06;81.73
44988;BME280;35735;52.226;21.254;2023-04-04T17:15:39;100922.53;;;3.13;82.46
44988;BME280;35735;52.226;21.254;2023-04-04T17:20:39;100929.69;;;3.14;82.02
44988;BME280;35735;52.226;21.254;2023-04-04T17:25:40;100925.44;;;3.20;82.59
44988;BME280;35735;52.226;21.254;2023-04-04T17:30:41;100934.59;;;3.26;82.55
44988;BME280;35735;52.226;21.254;2023-04-04T17:35:41;100930.16;;;3.27;82.83
44988;BME280;35735;52.226;21.254;2023-04-04T17:40:42;100931.84;;;3.25;82.35
44988;BME280;35735;52.226;21.254;2023-04-04T17:45:43;100931.75;;;3.22;83.10
44988;BME280;35735;52.226;21.254;2023-04-04T17:50:43;100939.22;;;3.32;82.83
44988;BME280;35735;52.226;21.254;2023-04-04T17:55:44;100936.69;;;3.35;82.64
44988;BME280;35735;52.226;21.254;2023-04-04T18:00:44;100941.97;;;3.33;83.07
44988;BME280;35735;52.226;21.254;2023-04-04T18:05:45;100949.34;;;3.41;82.73
44988;BME280;35735;52.226;21.254;2023-04-04T18:10:46;100956.84;;;3.27;81.46
44988;BME280;35735;52.226;21.254;2023-04-04T18:15:47;100967.69;;;3.09;82.32
44988;BME280;35735;52.226;21.254;2023-04-04T18:20:48;100976.78;;;2.69;84.23
44988;BME280;35735;52.226;21.254;2023-04-04T18:25:49;100979.72;;;2.54;85.65
44988;BME280;35735;52.226;21.254;2023-04-04T18:30:50;100970.72;;;2.29;86.78
44988;BME280;35735;52.226;21.254;2023-04-04T18:35:51;100970.47;;;2.23;87.81
44988;BME280;35735;52.226;21.254;2023-04-04T18:40:54;100979.69;;;2.31;88.28
44988;BME280;35735;52.226;21.254;2023-04-04T18:45:55;100986.94;;;2.35;88.86
44988;BME280;35735;52.226;21.254;2023-04-04T18:50:55;100982.69;;;2.39;89.50
44988;BME280;35735;52.226;21.254;2023-04-04T18:55:56;100987.34;;;2.45;90.13
44988;BME280;35735;52.226;21.254;2023-04-04T19:00:57;100987.22;;;2.41;89.90
44988;BME280;35735;52.226;21.254;2023-04-04T19:05:59;100981.19;;;2.46;90.58
44988;BME280;35735;52.226;21.254;2023-04-04T19:10:59;100979.50;;;2.48;91.11
44988;BME280;35735;52.226;21.254;2023-04-04T19:16:00;100977.66;;;2.47;91.33
44988;BME280;35735;52.226;21.254;2023-04-04T19:21:03;100985.78;;;2.50;91.55
44988;BME280;35735;52.226;21.254;2023-04-04T19:26:04;100978.38;;;2.43;91.62
44988;BME280;35735;52.226;21.254;2023-04-04T19:31:08;100981.38;;;2.29;91.71
44988;BME280;35735;52.226;21.254;2023-04-04T19:36:09;100986.31;;;2.20;92.40
44988;BME280;35735;52.226;21.254;2023-04-04T19:46:26;100974.94;;;2.03;92.79
44988;BME280;35735;52.226;21.254;2023-04-04T19:56:28;100971.69;;;1.89;93.50
44988;BME280;35735;52.226;21.254;2023-04-04T20:01:31;100974.19;;;1.86;94.15
44988;BME280;35735;52.226;21.254;2023-04-04T20:06:33;100974.59;;;1.95;94.41
44988;BME280;35735;52.226;21.254;2023-04-04T20:11:35;100965.00;;;1.99;94.65
44988;BME280;35735;52.226;21.254;2023-04-04T20:16:35;100964.62;;;2.11;94.64
44988;BME280;35735;52.226;21.254;2023-04-04T20:21:36;100966.81;;;2.21;94.66
44988;BME280;35735;52.226;21.254;2023-04-04T20:26:49;100964.28;;;2.24;94.84
44988;BME280;35735;52.226;21.254;2023-04-04T20:32:00;100957.97;;;2.22;94.88
44988;BME280;35735;52.226;21.254;2023-04-04T20:37:16;100958.22;;;2.07;94.78
44988;BME280;35735;52.226;21.254;2023-04-04T20:47:28;100963.44;;;2.04;95.28
44988;BME280;35735;52.226;21.254;2023-04-04T20:52:47;100958.75;;;2.19;95.11
44988;BME280;35735;52.226;21.254;2023-04-04T20:57:52;100950.56;;;2.15;94.77
44988;BME280;35735;52.226;21.254;2023-04-04T21:02:56;100952.13;;;2.10;94.87
44988;BME280;35735;52.226;21.254;2023-04-04T21:07:59;100959.28;;;2.11;94.94
44988;BME280;35735;52.226;21.254;2023-04-04T21:13:00;100950.31;;;2.09;94.97
44988;BME280;35735;52.226;21.254;2023-04-04T21:18:05;100947.72;;;2.10;94.91
44988;BME280;35735;52.226;21.254;2023-04-04T21:23:17;100950.22;;;2.07;95.04
44988;BME280;35735;52.226;21.254;2023-04-04T21:28:41;100947.84;;;1.92;95.02
44988;BME280;35735;52.226;21.254;2023-04-04T21:33:47;100951.78;;;1.81;95.31
44988;BME280;35735;52.226;21.254;2023-04-04T21:39:19;100957.66;;;1.74;95.65
44988;BME280;35735;52.226;21.254;2023-04-04T21:44:22;100954.03;;;1.72;96.11
44988;BME280;35735;52.226;21.254;2023-04-04T21:49:23;100947.53;;;1.65;96.13
44988;BME280;35735;52.226;21.254;2023-04-04T21:54:26;100950.97;;;1.62;96.30
44988;BME280;35735;52.226;21.254;2023-04-04T21:59:27;100952.37;;;1.54;96.20
44988;BME280;35735;52.226;21.254;2023-04-04T22:04:28;100944.94;;;1.47;96.26
44988;BME280;35735;52.226;21.254;2023-04-04T22:09:28;100946.50;;;1.42;96.42
44988;BME280;35735;52.226;21.254;2023-04-04T22:14:29;100943.28;;;1.29;96.50
44988;BME280;35735;52.226;21.254;2023-04-04T22:19:29;100936.13;;;1.28;96.99
44988;BME280;35735;52.226;21.254;2023-04-04T22:24:30;100936.62;;;1.20;96.78
44988;BME280;35735;52.226;21.254;2023-04-04T22:29:30;100939.34;;;1.02;96.75
44988;BME280;35735;52.226;21.254;2023-04-04T22:34:31;100947.72;;;0.91;96.92
44988;BME280;35735;52.226;21.254;2023-04-04T22:39:31;100940.06;;;0.80;97.23
44988;BME280;35735;52.226;21.254;2023-04-04T22:44:32;100938.06;;;0.74;97.12
44988;BME280;35735;52.226;21.254;2023-04-04T22:49:33;100937.66;;;0.66;97.22
44988;BME280;35735;52.226;21.254;2023-04-04T22:54:34;100939.53;;;0.49;97.31
44988;BME280;35735;52.226;21.254;2023-04-04T22:59:34;100941.19;;;0.47;97.71
44988;BME280;35735;52.226;21.254;2023-04-04T23:04:35;100939.06;;;0.40;97.50
44988;BME280;35735;52.226;21.254;2023-04-04T23:09:35;100941.13;;;0.28;97.48
44988;BME280;35735;52.226;21.254;2023-04-04T23:14:36;100931.03;;;0.21;97.74
44988;BME280;35735;52.226;21.254;2023-04-04T23:19:36;100934.16;;;0.12;97.76
44988;BME280;35735;52.226;21.254;2023-04-04T23:24:37;100934.88;;;0.09;98.00
44988;BME280;35735;52.226;21.254;2023-04-04T23:29:37;100929.78;;;-0.04;97.86
44988;BME280;35735;52.226;21.254;2023-04-04T23:34:38;100920.38;;;-0.15;98.04
44988;BME280;35735;52.226;21.254;2023-04-04T23:39:39;100918.25;;;-0.23;98.13
44988;BME280;35735;52.226;21.254;2023-04-04T23:44:39;100917.91;;;-0.29;98.35
44988;BME280;35735;52.226;21.254;2023-04-04T23:49:40;100908.81;;;-0.34;98.54
44988;BME280;35735;52.226;21.254;2023-04-04T23:54:41;100912.63;;;-0.45;98.55
44988;BME280;35735;52.226;21.254;2023-04-04T23:59:41;100912.81;;;-0.59;98.49
